Time;durP1;ratioP1;P1;durP2;ratioP2;P2;SDS_P1;SDS_P2;PMS_P1;PMS_P2;Temp;Humidity;BMP_temperature;BMP_pressure;BME280_temperature;BME280_humidity;BME280_pressure;Samples;Min_cycle;Max_cycle;Signal;HPM_P1;HPM_P2
2023/02/28 06:53:51;;;;;;;2.22;1.38;;;;;;;;;;10561906;27;20405;-81
2023/02/28 06:58:54;;;;;;;2.33;1.40;;;;;;;;;;10559293;28;20486;-81
2023/02/28 07:03:55;;;;;;;2.40;1.50;;;;;;;;;;10559741;28;20470;-82
2023/02/28 07:08:56;;;;;;;4.65;2.30;;;;;;;;;;10558604;28;20038;-82
2023/02/28 07:14:03;;;;;;;2.92;1.85;;;;;;;;;;10559476;28;20058;-81
2023/02/28 07:19:07;;;;;;;2.53;1.83;;;;;;;;;;10560120;28;20028;-82
2023/02/28 07:24:08;;;;;;;3.55;1.65;;;;;;;;;;10558934;28;20051;-82
2023/02/28 07:29:09;;;;;;;2.75;2.00;;;;;;;;;;10558351;28;20409;-82
2023/02/28 07:34:10;;;;;;;3.15;1.90;;;;;;;;;;10560758;28;20044;-82
2023/02/28 07:39:12;;;;;;;2.35;1.73;;;;;;;;;;10559270;28;20039;-82
2023/02/28 07:44:13;;;;;;;2.47;1.67;;;;;;;;;;10559331;28;20044;-82
2023/02/28 07:49:14;;;;;;;2.40;1.77;;;;;;;;;;10560234;28;20032;-82
2023/02/28 07:54:21;;;;;;;3.67;1.83;;;;;;;;;;10560033;28;20100;-83
2023/02/28 07:59:22;;;;;;;2.10;1.60;;;;;;;;;;10559846;28;20039;-82
2023/02/28 08:04:23;;;;;;;;;;;;;;;;;;10526804;28;20043;-79
2023/02/28 08:09:24;;;;;;;2.72;1.90;;;;;;;;;;10524216;28;19979;-79
2023/02/28 08:14:25;;;;;;;4.85;2.42;;;;;;;;;;10531630;28;20048;-79
2023/02/28 08:19:26;;;;;;;4.93;2.10;;;;;;;;;;10519839;28;20028;-80
2023/02/28 08:24:27;;;;;;;5.28;2.25;;;;;;;;;;10516544;28;20021;-79
2023/02/28 08:29:30;;;;;;;3.78;2.20;;;;;;;;;;10514095;28;20119;-79
2023/02/28 08:34:31;;;;;;;3.33;2.28;;;;;;;;;;10513506;28;20101;-79
2023/02/28 08:39:34;;;;;;;4.97;3.13;;;;;;;;;;10511868;28;20062;-79
2023/02/28 08:44:35;;;;;;;4.50;3.08;;;;;;;;;;10517676;28;20190;-79
2023/02/28 08:49:37;;;;;;;4.68;2.75;;;;;;;;;;10514740;28;20040;-79
2023/02/28 08:54:38;;;;;;;5.00;2.75;;;;;;;;;;10513370;28;20127;-79
2023/02/28 08:59:39;;;;;;;;;;;;;;;;;;10516094;28;20043;-79
2023/02/28 09:04:40;;;;;;;4.15;3.00;;;;;;;;;;10511631;28;19904;-79
2023/02/28 09:09:53;;;;;;;3.65;2.33;;;;;;;;;;10510220;28;20028;-78
2023/02/28 09:14:54;;;;;;;2.88;2.30;;;;;;;;;;10517132;28;20021;-78
2023/02/28 09:19:55;;;;;;;3.95;2.50;;;;;;;;;;10520243;28;20392;-79
2023/02/28 09:24:56;;;;;;;4.05;2.13;;;;;;;;;;10511162;28;20048;-78
2023/02/28 09:29:57;;;;;;;;;;;;;;;;;;10518123;28;20024;-79
2023/02/28 09:34:58;;;;;;;2.85;2.13;;;;;;;;;;10515335;28;20449;-79
2023/02/28 09:39:59;;;;;;;3.78;1.80;;;;;;;;;;10511721;28;20032;-79
2023/02/28 09:45:00;;;;;;;;;;;;;;;;;;10511440;28;20079;-80
2023/02/28 09:50:24;;;;;;;4.57;1.90;;;;;;;;;;10513905;28;19916;-79
2023/02/28 09:55:31;;;;;;;2.63;2.00;;;;;;;;;;10493186;22;20032;-83
2023/02/28 10:00:34;;;;;;;2.78;2.00;;;;;;;;;;10451339;28;20048;-83
2023/02/28 10:05:41;;;;;;;3.03;1.90;;;;;;;;;;10437344;28;20033;-84
2023/02/28 10:11:00;;;;;;;3.70;1.83;;;;;;;;;;10428848;28;20093;-85
2023/02/28 10:16:03;;;;;;;3.85;2.65;;;;;;;;;;10430140;28;20120;-84
2023/02/28 10:21:05;;;;;;;4.85;2.60;;;;;;;;;;10431319;28;20029;-84
2023/02/28 10:26:10;;;;;;;4.32;2.65;;;;;;;;;;10428524;28;20030;-84
2023/02/28 10:31:16;;;;;;;3.22;2.05;;;;;;;;;;10430625;28;20124;-84
2023/02/28 10:36:21;;;;;;;5.00;2.95;;;;;;;;;;10431666;28;20025;-83
2023/02/28 10:41:29;;;;;;;6.05;2.40;;;;;;;;;;10442943;28;20039;-79
2023/02/28 10:46:33;;;;;;;3.10;1.98;;;;;;;;;;10444143;28;20025;-84
2023/02/28 10:51:35;;;;;;;3.75;2.00;;;;;;;;;;10426163;28;20037;-82
2023/02/28 10:56:36;;;;;;;4.43;1.80;;;;;;;;;;10429987;28;20097;-83
2023/02/28 11:01:39;;;;;;;3.55;1.75;;;;;;;;;;10427849;28;20124;-83
2023/02/28 11:06:40;;;;;;;12.80;2.35;;;;;;;;;;10429836;28;20029;-82
2023/02/28 11:11:44;;;;;;;2.45;1.65;;;;;;;;;;10429844;28;20120;-82
2023/02/28 11:16:45;;;;;;;2.67;1.40;;;;;;;;;;10442986;28;20093;-83
2023/02/28 11:21:52;;;;;;;2.80;1.52;;;;;;;;;;10433949;28;20468;-82
2023/02/28 11:26:53;;;;;;;2.17;1.55;;;;;;;;;;10432957;28;20052;-83
2023/02/28 11:32:13;;;;;;;5.15;3.45;;;;;;;;;;10432031;28;20116;-82
2023/02/28 11:37:18;;;;;;;3.92;1.60;;;;;;;;;;10432008;28;20403;-83
2023/02/28 11:42:39;;;;;;;4.13;2.15;;;;;;;;;;10437979;28;20124;-82
2023/02/28 11:47:48;;;;;;;2.47;1.40;;;;;;;;;;10439901;28;20052;-82
2023/02/28 11:52:52;;;;;;;3.03;1.80;;;;;;;;;;10440692;28;20029;-83
2023/02/28 11:58:12;;;;;;;3.33;1.60;;;;;;;;;;10445263;28;20038;-83
2023/02/28 12:03:22;;;;;;;4.68;2.33;;;;;;;;;;10443835;28;20057;-83
2023/02/28 12:08:43;;;;;;;2.78;2.00;;;;;;;;;;10436594;28;20497;-83
2023/02/28 12:14:16;;;;;;;3.00;1.67;;;;;;;;;;10433713;28;20037;-83
2023/02/28 12:19:21;;;;;;;3.17;1.98;;;;;;;;;;10431345;28;20041;-83
2023/02/28 12:24:39;;;;;;;2.42;1.33;;;;;;;;;;10435280;28;20045;-82
2023/02/28 12:29:46;;;;;;;3.50;1.85;;;;;;;;;;10432453;28;20057;-84
2023/02/28 12:34:52;;;;;;;3.72;1.70;;;;;;;;;;10430553;28;20025;-83
2023/02/28 12:39:59;;;;;;;8.85;5.22;;;;;;;;;;10433859;28;20100;-82
2023/02/28 12:45:02;;;;;;;3.03;2.00;;;;;;;;;;10433213;28;20093;-83
2023/02/28 12:50:05;;;;;;;3.75;2.15;;;;;;;;;;10430918;28;20044;-82
2023/02/28 12:55:12;;;;;;;2.95;2.03;;;;;;;;;;10433259;28;20115;-82
2023/02/28 13:00:21;;;;;;;3.47;2.00;;;;;;;;;;10432724;28;20044;-82
2023/02/28 13:05:32;;;;;;;3.55;1.70;;;;;;;;;;10431416;28;20045;-82
2023/02/28 13:10:40;;;;;;;2.25;1.85;;;;;;;;;;10438126;28;20554;-82
2023/02/28 13:15:45;;;;;;;4.78;1.92;;;;;;;;;;10445921;28;20033;-81
2023/02/28 13:20:50;;;;;;;2.17;1.27;;;;;;;;;;10456018;28;20087;-84
2023/02/28 13:25:53;;;;;;;2.75;1.33;;;;;;;;;;10429608;28;20030;-82
2023/02/28 13:30:55;;;;;;;3.92;1.90;;;;;;;;;;10430667;28;20033;-84
2023/02/28 13:36:17;;;;;;;3.72;2.20;;;;;;;;;;10430275;28;20025;-84
2023/02/28 13:41:34;;;;;;;3.42;1.70;;;;;;;;;;10429526;28;20037;-84
2023/02/28 13:46:47;;;;;;;2.50;1.77;;;;;;;;;;10429797;28;20075;-84
2023/02/28 13:51:50;;;;;;;3.67;2.25;;;;;;;;;;10430460;28;20061;-83
2023/02/28 13:56:51;;;;;;;2.35;1.67;;;;;;;;;;10428524;28;20041;-83
2023/02/28 14:02:10;;;;;;;2.38;2.10;;;;;;;;;;10426181;28;20033;-83
2023/02/28 14:07:17;;;;;;;4.53;3.17;;;;;;;;;;10427275;28;20033;-83
2023/02/28 14:12:37;;;;;;;2.22;1.63;;;;;;;;;;10428828;28;20029;-84
2023/02/28 14:17:38;;;;;;;3.38;2.05;;;;;;;;;;10428945;28;20089;-84
2023/02/28 14:22:48;;;;;;;3.70;2.15;;;;;;;;;;10429181;28;20036;-84
2023/02/28 14:27:54;;;;;;;4.00;2.67;;;;;;;;;;10431067;28;20049;-84
2023/02/28 14:33:17;;;;;;;11.88;2.40;;;;;;;;;;10428645;28;20033;-84
2023/02/28 14:38:28;;;;;;;2.88;1.58;;;;;;;;;;10433556;28;20136;-82
2023/02/28 14:43:29;;;;;;;3.50;1.95;;;;;;;;;;10451542;28;20037;-82
2023/02/28 14:48:31;;;;;;;3.25;2.00;;;;;;;;;;10434109;28;20053;-84
2023/02/28 14:53:36;;;;;;;2.17;1.63;;;;;;;;;;10428638;28;20018;-84
2023/02/28 14:58:37;;;;;;;11.55;8.48;;;;;;;;;;10429144;28;20100;-83
2023/02/28 15:03:40;;;;;;;3.95;2.53;;;;;;;;;;10432437;28;20022;-83
2023/02/28 15:08:41;;;;;;;4.72;3.00;;;;;;;;;;10428293;28;20513;-81
2023/02/28 15:13:47;;;;;;;3.65;2.47;;;;;;;;;;10434529;28;20538;-83
2023/02/28 15:18:48;;;;;;;16.38;11.13;;;;;;;;;;10436476;28;20029;-83
2023/02/28 15:23:55;;;;;;;3.20;1.90;;;;;;;;;;10438059;28;20035;-83
2023/02/28 15:29:00;;;;;;;2.58;1.90;;;;;;;;;;10437793;28;20093;-83
2023/02/28 15:34:06;;;;;;;3.85;2.50;;;;;;;;;;10436807;28;20043;-83
2023/02/28 15:39:21;;;;;;;4.55;2.20;;;;;;;;;;10439051;28;20098;-83
2023/02/28 15:44:29;;;;;;;3.17;1.50;;;;;;;;;;10439122;28;20092;-83
2023/02/28 15:49:35;;;;;;;2.88;1.83;;;;;;;;;;10446862;28;20027;-83
2023/02/28 15:54:36;;;;;;;3.45;2.47;;;;;;;;;;10453441;28;20056;-83
2023/02/28 15:59:38;;;;;;;5.18;1.88;;;;;;;;;;10460077;23;20144;-79
2023/02/28 16:04:55;;;;;;;2.65;1.95;;;;;;;;;;10448126;28;20030;-79
2023/02/28 16:09:56;;;;;;;3.38;2.20;;;;;;;;;;10452279;28;20109;-80
2023/02/28 16:15:02;;;;;;;4.15;2.58;;;;;;;;;;10436897;28;20029;-80
2023/02/28 16:20:13;;;;;;;3.70;2.60;;;;;;;;;;10432876;28;20497;-79
2023/02/28 16:25:15;;;;;;;2.55;1.50;;;;;;;;;;10431505;28;20471;-79
2023/02/28 16:30:22;;;;;;;4.30;2.55;;;;;;;;;;10431194;28;20083;-79
2023/02/28 16:35:23;;;;;;;2.92;2.08;;;;;;;;;;10431084;28;20029;-80
2023/02/28 16:40:25;;;;;;;;;;;;;;;;;;10431510;28;20075;-80
2023/02/28 16:45:27;;;;;;;3.28;2.22;;;;;;;;;;10434785;28;20042;-80
2023/02/28 16:50:29;;;;;;;3.45;2.50;;;;;;;;;;10432024;28;20025;-81
2023/02/28 16:55:30;;;;;;;3.20;2.15;;;;;;;;;;10432100;28;20026;-80
2023/02/28 17:00:32;;;;;;;3.70;2.45;;;;;;;;;;10439712;28;20133;-79
2023/02/28 17:05:39;;;;;;;3.20;2.30;;;;;;;;;;10450573;28;20029;-80
2023/02/28 17:10:40;;;;;;;3.53;1.90;;;;;;;;;;10440867;28;20026;-79
2023/02/28 17:15:41;;;;;;;4.40;1.50;;;;;;;;;;10439480;28;20029;-79
2023/02/28 17:20:42;;;;;;;7.97;2.47;;;;;;;;;;10449599;28;20048;-80
2023/02/28 17:25:52;;;;;;;;;;;;;;;;;;10443851;28;20399;-81
2023/02/28 17:30:54;;;;;;;5.03;3.67;;;;;;;;;;10439833;28;19905;-80
2023/02/28 17:35:55;;;;;;;;;;;;;;;;;;10431551;28;20044;-81
2023/02/28 17:40:57;;;;;;;3.22;2.40;;;;;;;;;;10430477;28;20011;-81
2023/02/28 17:45:58;;;;;;;3.97;2.33;;;;;;;;;;10431923;28;20517;-81
2023/02/28 17:50:59;;;;;;;3.25;2.20;;;;;;;;;;10428290;28;20078;-81
2023/02/28 17:56:00;;;;;;;;;;;;;;;;;;10429808;28;20029;-80
2023/02/28 18:01:01;;;;;;;4.68;2.72;;;;;;;;;;10430820;28;19948;-80
2023/02/28 18:06:03;;;;;;;6.25;2.75;;;;;;;;;;10453600;28;20029;-79
2023/02/28 18:11:04;;;;;;;4.18;2.22;;;;;;;;;;10437454;28;20462;-80
2023/02/28 18:16:05;;;;;;;;;;;;;;;;;;10426806;28;20092;-80
2023/02/28 18:21:06;;;;;;;4.45;3.05;;;;;;;;;;10426512;28;19931;-82
2023/02/28 18:26:08;;;;;;;4.22;2.17;;;;;;;;;;10426969;28;20556;-81
2023/02/28 18:31:09;;;;;;;3.00;2.28;;;;;;;;;;10426889;28;20510;-82
2023/02/28 18:36:10;;;;;;;5.03;3.45;;;;;;;;;;10427745;28;20029;-83
2023/02/28 18:41:11;;;;;;;;;;;;;;;;;;10427032;28;20025;-81
2023/02/28 18:46:14;;;;;;;2.95;2.33;;;;;;;;;;10427284;28;19905;-81
2023/02/28 18:51:16;;;;;;;4.00;2.78;;;;;;;;;;10430521;28;20133;-82
2023/02/28 18:56:18;;;;;;;4.53;3.40;;;;;;;;;;10426494;28;20037;-81
2023/02/28 19:01:31;;;;;;;5.57;4.53;;;;;;;;;;10424678;28;20442;-82
2023/02/28 19:06:32;;;;;;;3.90;2.80;;;;;;;;;;10426052;28;20033;-82
2023/02/28 19:11:33;;;;;;;4.32;3.30;;;;;;;;;;10425466;28;20037;-82
2023/02/28 19:16:35;;;;;;;8.32;5.15;;;;;;;;;;10425933;28;20044;-82
2023/02/28 19:21:36;;;;;;;4.35;3.13;;;;;;;;;;10426029;28;20372;-81
2023/02/28 19:26:37;;;;;;;3.95;3.17;;;;;;;;;;10422640;28;20044;-81
2023/02/28 19:31:38;;;;;;;;;;;;;;;;;;10422508;28;20037;-81
2023/02/28 19:36:39;;;;;;;3.22;2.25;;;;;;;;;;10427701;28;19970;-81
2023/02/28 19:41:40;;;;;;;4.45;3.42;;;;;;;;;;10437175;28;20076;-82
2023/02/28 19:46:41;;;;;;;;;;;;;;;;;;10454143;28;20062;-79
2023/02/28 19:51:43;;;;;;;4.15;2.90;;;;;;;;;;10449624;28;19956;-81
2023/02/28 19:56:44;;;;;;;4.30;3.05;;;;;;;;;;10428210;28;20117;-81
2023/02/28 20:01:46;;;;;;;;;;;;;;;;;;10432380;28;20033;-82
2023/02/28 20:06:47;;;;;;;2.97;2.55;;;;;;;;;;10430794;28;19988;-82
2023/02/28 20:11:49;;;;;;;;;;;;;;;;;;10431891;28;20117;-82
2023/02/28 20:16:50;;;;;;;4.68;3.10;;;;;;;;;;10431575;28;20363;-82
